createdAt,value
2022-12-23T00:01:26.194Z,99794.75
2022-12-23T00:06:28.125Z,99790.28
2022-12-23T00:11:30.017Z,99797.47
2022-12-23T00:16:32.553Z,99801.75
2022-12-23T00:21:36.391Z,99797.28
2022-12-23T00:26:38.536Z,99798.16
2022-12-23T00:31:40.504Z,99795.38
2022-12-23T00:36:42.592Z,99793.88
2022-12-23T00:42:03.250Z,99815.19
2022-12-23T00:47:05.435Z,99817.56
2022-12-23T00:52:12.976Z,99824.00
2022-12-23T00:57:15.171Z,99836.97
2022-12-23T01:02:35.830Z,99828.25
2022-12-23T01:07:37.848Z,99839.63
2022-12-23T01:12:39.851Z,99841.44
2022-12-23T01:17:41.853Z,99855.53
2022-12-23T01:22:43.896Z,99851.94
2022-12-23T01:27:45.741Z,99855.72
2022-12-23T01:32:47.785Z,99857.50
2022-12-23T01:37:49.746Z,99855.63
2022-12-23T01:42:51.641Z,99861.78
2022-12-23T01:47:59.534Z,99858.38
2022-12-23T01:53:14.007Z,99865.28
2022-12-23T01:58:21.193Z,99875.91
2022-12-23T02:03:42.012Z,99881.13
2022-12-23T02:09:02.561Z,99886.16
2022-12-23T02:14:50.692Z,99894.53
2022-12-23T02:20:24.723Z,99905.75
2022-12-23T02:25:38.345Z,99900.88
2022-12-23T02:31:01.355Z,99912.25
2022-12-23T02:36:15.962Z,99899.78
2022-12-23T02:41:35.373Z,99920.56
2022-12-23T02:46:47.684Z,99948.53
2022-12-23T02:51:54.588Z,99964.44
2022-12-23T02:56:59.113Z,99957.25
2022-12-23T03:02:01.739Z,99965.97
2022-12-23T03:07:07.655Z,99962.56
2022-12-23T03:12:47.746Z,99959.16
2022-12-23T03:18:00.209Z,99966.81
2022-12-23T03:23:10.048Z,99968.78
2022-12-23T03:28:19.412Z,99963.41
2022-12-23T03:33:26.289Z,99967.88
2022-12-23T03:38:29.947Z,99962.44
2022-12-23T03:43:44.812Z,99952.13
2022-12-23T03:48:55.855Z,99953.72
2022-12-23T03:54:03.765Z,99944.84
2022-12-23T03:59:12.164Z,99941.34
2022-12-23T04:04:22.771Z,99942.13
2022-12-23T04:09:27.775Z,99946.53
2022-12-23T04:14:30.119Z,99956.03
2022-12-23T04:19:32.115Z,99958.78
2022-12-23T04:24:34.164Z,99965.97
2022-12-23T04:29:36.242Z,99969.75
2022-12-23T04:34:38.337Z,99967.88
2022-12-23T04:39:40.396Z,99973.06
2022-12-23T04:44:42.351Z,99974.88
2022-12-23T04:49:44.317Z,99966.34
2022-12-23T04:54:46.664Z,99967.09
2022-12-23T04:59:48.780Z,99972.13
2022-12-23T05:04:50.631Z,99978.97
2022-12-23T05:09:52.481Z,99977.25
2022-12-23T05:14:54.440Z,99980.16
2022-12-23T05:19:56.387Z,99971.28
2022-12-23T05:24:58.311Z,99980.00
2022-12-23T05:30:00.195Z,99983.66
2022-12-23T05:35:02.662Z,99991.53
2022-12-23T05:40:04.983Z,100009.94
2022-12-23T05:45:07.774Z,100016.38
2022-12-23T05:50:09.950Z,100006.41
2022-12-23T05:55:11.863Z,100011.63
2022-12-23T06:00:14.769Z,100009.94
2022-12-23T06:05:17.040Z,99998.56
2022-12-23T06:10:19.093Z,99985.47
2022-12-23T06:15:20.864Z,99990.00
2022-12-23T06:20:22.825Z,99987.00
2022-12-23T06:25:24.979Z,99979.06
2022-12-23T06:30:26.954Z,99962.38
2022-12-23T06:35:29.013Z,99972.81
2022-12-23T06:40:33.951Z,99970.59
2022-12-23T06:45:35.956Z,99976.81
2022-12-23T06:50:38.064Z,99996.75
2022-12-23T06:55:39.911Z,100008.56
2022-12-23T07:00:41.906Z,100003.94
2022-12-23T07:05:50.723Z,100016.44
2022-12-23T07:11:01.142Z,100020.03
2022-12-23T07:16:07.929Z,100027.03
2022-12-23T07:21:19.698Z,100029.69
2022-12-23T07:26:26.543Z,100025.94
2022-12-23T07:31:28.782Z,100014.72
2022-12-23T07:36:30.902Z,100028.84
2022-12-23T07:41:32.978Z,100027.91
2022-12-23T07:46:35.135Z,100027.75
2022-12-23T07:51:36.975Z,100016.38
2022-12-23T07:56:39.131Z,100010.09
2022-12-23T08:01:41.189Z,100003.88
2022-12-23T08:06:43.297Z,100022.44
2022-12-23T08:11:46.562Z,100001.22
2022-12-23T08:16:48.851Z,99991.72
2022-12-23T08:21:50.672Z,100000.97
2022-12-23T08:26:52.585Z,100002.06
2022-12-23T08:31:56.400Z,100004.41
2022-12-23T08:36:58.407Z,100006.25
2022-12-23T08:42:00.280Z,100005.34
2022-12-23T08:47:02.036Z,99999.16
2022-12-23T08:52:04.246Z,99996.34
2022-12-23T08:57:06.176Z,99983.66
2022-12-23T09:02:11.875Z,99972.06
2022-12-23T09:07:14.098Z,99976.25
2022-12-23T09:12:15.921Z,99964.44
2022-12-23T09:17:18.059Z,99952.38
2022-12-23T09:22:19.866Z,99949.72
2022-12-23T09:27:21.879Z,99932.63
2022-12-23T09:32:23.629Z,99937.06
2022-12-23T09:37:25.618Z,99920.47
2022-12-23T09:42:33.427Z,99917.16
2022-12-23T09:47:35.621Z,99909.78
2022-12-23T09:52:51.686Z,99907.31
2022-12-23T09:58:02.386Z,99898.03
2022-12-23T10:03:20.738Z,99888.25
2022-12-23T10:08:39.093Z,99893.97
2022-12-23T10:14:03.367Z,99886.78
2022-12-23T10:19:26.732Z,99873.97
2022-12-23T10:24:35.141Z,99863.56
2022-12-23T10:29:38.212Z,99860.50
2022-12-23T10:34:48.419Z,99843.59
2022-12-23T10:40:05.810Z,99826.03
2022-12-23T10:45:26.549Z,99824.28
2022-12-23T10:50:34.368Z,99815.97
2022-12-23T10:55:38.680Z,99803.06
2022-12-23T11:00:45.484Z,99791.50
2022-12-23T11:05:50.316Z,99764.81
2022-12-23T11:10:53.039Z,99754.00
2022-12-23T11:15:58.477Z,99738.56
2022-12-23T11:21:06.318Z,99726.81
2022-12-23T11:26:20.450Z,99696.06
2022-12-23T11:31:28.722Z,99676.66
2022-12-23T11:36:32.692Z,99661.78
2022-12-23T11:42:06.565Z,99649.84
2022-12-23T11:47:25.575Z,99651.06
2022-12-23T11:52:30.296Z,99635.66
2022-12-23T11:57:46.903Z,99619.25
2022-12-23T12:02:53.047Z,99606.88
2022-12-23T12:08:01.461Z,99574.19
2022-12-23T12:13:06.384Z,99561.41
2022-12-23T12:18:13.386Z,99544.84
2022-12-23T12:23:21.713Z,99536.06
2022-12-23T12:28:34.712Z,99539.25
2022-12-23T12:33:44.352Z,99537.72
2022-12-23T12:38:48.978Z,99515.38
2022-12-23T12:43:56.020Z,99458.00
2022-12-23T12:49:11.361Z,99443.03
2022-12-23T12:54:32.884Z,99442.47
2022-12-23T12:59:37.342Z,99433.09
2022-12-23T13:05:17.751Z,99424.34
2022-12-23T13:10:44.004Z,99408.78
2022-12-23T13:15:48.778Z,99394.03
2022-12-23T13:21:24.513Z,99387.44
2022-12-23T13:26:37.501Z,99379.91
2022-12-23T13:31:57.553Z,99383.63
2022-12-23T13:37:24.415Z,99365.81
2022-12-23T13:42:42.251Z,99362.31
2022-12-23T13:48:06.342Z,99361.47
2022-12-23T13:53:38.953Z,99360.00
2022-12-23T13:58:41.580Z,99361.25
2022-12-23T14:03:44.236Z,99364.88
2022-12-23T14:08:47.762Z,99364.97
2022-12-23T14:13:49.934Z,99362.34
2022-12-23T14:19:24.127Z,99364.25
2022-12-23T14:24:35.812Z,99367.66
2022-12-23T14:30:14.554Z,99374.44
2022-12-23T14:35:38.465Z,99377.50
2022-12-23T14:40:41.944Z,99388.34
2022-12-23T14:45:44.290Z,99389.50
2022-12-23T14:50:57.856Z,99388.56
2022-12-23T14:56:15.306Z,99395.25
2022-12-23T15:01:23.925Z,99389.72
2022-12-23T15:06:48.424Z,99396.88
2022-12-23T15:11:51.037Z,99410.75
2022-12-23T15:16:53.064Z,99408.53
2022-12-23T15:22:22.161Z,99419.97
2022-12-23T15:27:30.866Z,99423.00
2022-12-23T15:32:32.719Z,99429.13
2022-12-23T15:37:34.995Z,99438.31
2022-12-23T15:42:38.752Z,99447.19
2022-12-23T15:47:42.581Z,99457.06
2022-12-23T15:52:46.655Z,99472.78
2022-12-23T15:57:51.030Z,99494.91
2022-12-23T16:03:05.488Z,99506.69
2022-12-23T16:08:16.546Z,99521.88
2022-12-23T16:13:21.066Z,99521.81
2022-12-23T16:18:32.941Z,99522.56
2022-12-23T16:23:37.361Z,99548.56
2022-12-23T16:28:42.742Z,99559.34
2022-12-23T16:33:50.015Z,99569.56
2022-12-23T16:38:57.790Z,99597.78
2022-12-23T16:43:59.939Z,99598.94
2022-12-23T16:49:05.017Z,99602.41
2022-12-23T16:54:07.104Z,99611.81
2022-12-23T16:59:09.447Z,99613.88
2022-12-23T17:04:11.955Z,99631.56
2022-12-23T17:09:14.243Z,99631.66
2022-12-23T17:14:22.364Z,99631.88
2022-12-23T17:19:29.196Z,99641.78
2022-12-23T17:24:31.740Z,99651.81
2022-12-23T17:29:33.833Z,99656.56
2022-12-23T17:34:35.721Z,99647.19
2022-12-23T17:39:37.435Z,99660.63
2022-12-23T17:44:39.172Z,99654.94
2022-12-23T17:49:41.032Z,99664.16
2022-12-23T17:54:45.152Z,99677.97
2022-12-23T17:59:49.040Z,99683.47
2022-12-23T18:04:51.705Z,99677.19
2022-12-23T18:09:54.511Z,99684.97
2022-12-23T18:14:57.219Z,99695.31
2022-12-23T18:19:59.254Z,99702.88
2022-12-23T18:25:01.293Z,99715.00
2022-12-23T18:30:04.177Z,99724.84
2022-12-23T18:35:40.139Z,99731.19
2022-12-23T18:40:42.995Z,99736.13
2022-12-23T18:45:49.275Z,99742.56
2022-12-23T18:50:54.406Z,99744.25
2022-12-23T18:55:56.496Z,99740.75
2022-12-23T19:00:58.720Z,99733.56
2022-12-23T19:06:06.947Z,99744.19
2022-12-23T19:11:18.914Z,99746.44
2022-12-23T19:16:21.792Z,99738.28
2022-12-23T19:21:23.798Z,99750.53
2022-12-23T19:26:26.093Z,99757.72
2022-12-23T19:31:29.991Z,99768.22
2022-12-23T19:36:32.220Z,99764.16
2022-12-23T19:41:34.113Z,99776.19
2022-12-23T19:46:36.189Z,99788.31
2022-12-23T19:51:37.908Z,99800.34
2022-12-23T19:56:40.093Z,99808.50
2022-12-23T20:01:42.558Z,99824.06
2022-12-23T20:06:44.631Z,99819.38
2022-12-23T20:11:48.391Z,99826.13
2022-12-23T20:16:50.783Z,99844.97
2022-12-23T20:21:52.852Z,99859.56
2022-12-23T20:26:55.106Z,99846.97
2022-12-23T20:31:56.930Z,99852.94
2022-12-23T20:36:59.031Z,99872.28
2022-12-23T20:42:01.035Z,99887.47
2022-12-23T20:47:03.221Z,99896.91
2022-12-23T20:52:05.252Z,99905.19
2022-12-23T20:57:07.235Z,99922.22
2022-12-23T21:02:13.355Z,99931.56
2022-12-23T21:07:15.357Z,99939.94
2022-12-23T21:12:17.291Z,99946.56
2022-12-23T21:17:19.438Z,99964.38
2022-12-23T21:22:21.484Z,99979.47
2022-12-23T21:27:23.532Z,99981.50
2022-12-23T21:32:25.435Z,99985.69
2022-12-23T21:37:27.747Z,99979.09
2022-12-23T21:42:29.638Z,99989.25
2022-12-23T21:47:32.038Z,100007.16
2022-12-23T21:52:34.364Z,100004.44
2022-12-23T21:57:37.004Z,99997.75
2022-12-23T22:02:39.330Z,100009.41
2022-12-23T22:07:41.631Z,100032.09
2022-12-23T22:12:43.574Z,100038.50
2022-12-23T22:17:45.671Z,100049.03
2022-12-23T22:22:47.756Z,100059.78
2022-12-23T22:27:49.474Z,100066.00
2022-12-23T22:32:52.015Z,100087.94
2022-12-23T22:37:53.893Z,100075.38
2022-12-23T22:42:55.764Z,100083.13
2022-12-23T22:47:58.033Z,100105.47
2022-12-23T22:52:59.849Z,100102.13
2022-12-23T22:58:01.643Z,100110.09
2022-12-23T23:03:03.925Z,100104.97
2022-12-23T23:08:05.917Z,100117.72
2022-12-23T23:13:07.823Z,100119.78
2022-12-23T23:18:09.848Z,100117.91
2022-12-23T23:23:11.875Z,100126.97
2022-12-23T23:28:14.669Z,100130.47
2022-12-23T23:33:16.576Z,100126.09
2022-12-23T23:38:18.932Z,100134.75
2022-12-23T23:43:21.759Z,100143.66
2022-12-23T23:48:24.129Z,100150.84
2022-12-23T23:53:26.043Z,100157.94
2022-12-23T23:58:27.843Z,100147.44
